Time;durP1;ratioP1;P1;durP2;ratioP2;P2;SDS_P1;SDS_P2;PMS_P1;PMS_P2;Temp;Humidity;BMP_temperature;BMP_pressure;BME280_temperature;BME280_humidity;BME280_pressure;Samples;Min_cycle;Max_cycle;Signal;HPM_P1;HPM_P2
2021/04/30 00:00:09;;;;;;;15.13;11.23;;;10.10;99.90;;;;;;5072049;28;20449;-71
2021/04/30 00:02:35;;;;;;;14.10;11.02;;;10.20;99.90;;;;;;5070868;28;20391;-71
2021/04/30 00:05:01;;;;;;;18.70;11.25;;;10.20;99.90;;;;;;5072126;28;20048;-71
2021/04/30 00:07:26;;;;;;;17.27;10.80;;;10.30;99.90;;;;;;5070681;28;20074;-71
2021/04/30 00:09:52;;;;;;;14.90;11.05;;;10.40;99.90;;;;;;5071940;28;20124;-71
2021/04/30 00:12:18;;;;;;;18.70;11.73;;;10.50;99.90;;;;;;5070643;28;20111;-71
2021/04/30 00:14:44;;;;;;;17.25;11.40;;;10.50;99.90;;;;;;5071910;28;20031;-71
2021/04/30 00:17:09;;;;;;;13.13;10.90;;;10.40;99.90;;;;;;5070587;28;20020;-71
2021/04/30 00:19:35;;;;;;;17.90;11.80;;;10.20;99.90;;;;;;5070744;28;20025;-71
2021/04/30 00:22:01;;;;;;;15.55;11.10;;;10.00;99.90;;;;;;5072468;28;20025;-71
2021/04/30 00:24:27;;;;;;;15.57;10.73;;;10.00;99.90;;;;;;5070503;28;20364;-71
2021/04/30 00:26:52;;;;;;;18.00;10.93;;;10.00;99.90;;;;;;5070403;28;20028;-71
2021/04/30 00:29:18;;;;;;;13.90;10.82;;;10.20;99.90;;;;;;5071759;28;20035;-71
2021/04/30 00:31:44;;;;;;;13.52;9.93;;;10.30;99.90;;;;;;5070601;28;20383;-71
2021/04/30 00:34:10;;;;;;;13.98;9.27;;;10.30;99.90;;;;;;5071735;28;20033;-71
2021/04/30 00:36:35;;;;;;;14.48;9.43;;;10.20;99.90;;;;;;5070413;28;20025;-71
2021/04/30 00:39:02;;;;;;;14.50;10.55;;;9.90;99.90;;;;;;5071663;28;20021;-71
2021/04/30 00:41:28;;;;;;;12.80;9.73;;;9.90;99.90;;;;;;5071665;28;20017;-71
2021/04/30 00:43:54;;;;;;;14.85;8.75;;;9.80;99.90;;;;;;5084975;22;20045;-72
2021/04/30 00:46:20;;;;;;;13.00;8.90;;;9.90;99.90;;;;;;5069858;28;20058;-72
2021/04/30 00:48:46;;;;;;;14.23;9.25;;;9.90;99.90;;;;;;5070159;28;20060;-72
2021/04/30 00:51:12;;;;;;;12.20;8.35;;;10.20;99.90;;;;;;5071574;28;20021;-72
2021/04/30 00:53:37;;;;;;;13.68;8.95;;;10.30;99.90;;;;;;5071501;28;20116;-72
2021/04/30 00:56:03;;;;;;;13.38;9.10;;;10.40;99.90;;;;;;5071344;28;20052;-72
2021/04/30 00:58:29;;;;;;;13.02;8.10;;;10.40;99.90;;;;;;5070306;28;20020;-72
2021/04/30 01:00:55;;;;;;;12.13;7.93;;;10.40;99.90;;;;;;5071546;28;20024;-72
2021/04/30 01:03:21;;;;;;;14.77;9.73;;;10.40;99.90;;;;;;5071485;28;20021;-72
2021/04/30 01:05:47;;;;;;;12.07;8.38;;;10.40;99.90;;;;;;5071203;28;20052;-72
2021/04/30 01:08:13;;;;;;;13.07;8.90;;;10.50;99.90;;;;;;5074783;28;20476;-72
2021/04/30 01:10:39;;;;;;;10.73;7.90;;;10.50;99.90;;;;;;5073862;28;20032;-71
2021/04/30 01:13:05;;;;;;;10.00;7.25;;;10.50;99.90;;;;;;5075095;28;20032;-72
2021/04/30 01:15:31;;;;;;;12.43;8.00;;;10.60;99.90;;;;;;5074882;28;20051;-71
2021/04/30 01:17:56;;;;;;;13.25;7.55;;;10.50;99.90;;;;;;5074686;28;20035;-72
2021/04/30 01:20:22;;;;;;;9.93;8.10;;;10.50;99.90;;;;;;5074881;28;20029;-74
2021/04/30 01:22:51;;;;;;;10.98;7.93;;;10.40;99.90;;;;;;5074717;28;20024;-74
2021/04/30 01:25:26;;;;;;;18.88;7.47;;;10.40;99.90;;;;;;5074772;28;20104;-74
2021/04/30 01:27:53;;;;;;;13.95;7.93;;;10.30;99.90;;;;;;5074580;28;20039;-74
2021/04/30 01:30:31;;;;;;;10.13;7.90;;;10.30;99.90;;;;;;5074689;28;20060;-74
2021/04/30 01:32:57;;;;;;;8.38;7.07;;;10.30;99.90;;;;;;5090236;28;20036;-74
2021/04/30 01:35:26;;;;;;;10.73;8.40;;;10.40;99.90;;;;;;5074442;28;20029;-74
2021/04/30 01:37:52;;;;;;;11.88;7.47;;;10.40;99.90;;;;;;5074350;28;20111;-74
2021/04/30 01:40:21;;;;;;;11.27;7.63;;;10.40;99.90;;;;;;5074575;28;20096;-75
2021/04/30 01:43:13;;;;;;;9.73;6.80;;;10.50;99.90;;;;;;5073295;28;20029;-75
2021/04/30 01:45:51;;;;;;;13.63;8.60;;;10.50;99.90;;;;;;5072925;28;20438;-74
2021/04/30 01:48:18;;;;;;;7.43;6.25;;;10.70;99.90;;;;;;5073089;28;20483;-74
2021/04/30 01:50:44;;;;;;;8.75;7.25;;;10.60;99.90;;;;;;5073052;28;20384;-72
2021/04/30 01:53:12;;;;;;;8.32;7.20;;;10.50;99.90;;;;;;5072990;28;20028;-71
2021/04/30 01:55:37;;;;;;;9.40;6.85;;;10.40;99.90;;;;;;5074056;28;20061;-72
2021/04/30 01:58:04;;;;;;;12.05;6.38;;;10.50;99.90;;;;;;5074057;28;20488;-72
2021/04/30 02:00:29;;;;;;;7.80;6.40;;;10.50;99.90;;;;;;5056143;28;20023;-72
2021/04/30 02:02:58;;;;;;;8.40;5.90;;;10.60;99.90;;;;;;5074091;28;20472;-72
2021/04/30 02:05:27;;;;;;;9.13;6.03;;;10.60;99.90;;;;;;5073984;28;20361;-72
2021/04/30 02:07:53;;;;;;;10.02;6.30;;;10.70;99.90;;;;;;5072505;28;20031;-73
2021/04/30 02:10:24;;;;;;;9.27;5.78;;;10.80;99.90;;;;;;5073905;28;20112;-72
2021/04/30 02:12:51;;;;;;;8.77;6.38;;;10.70;99.90;;;;;;5072555;28;20029;-71
2021/04/30 02:15:20;;;;;;;7.38;5.60;;;10.50;99.90;;;;;;5072503;28;20032;-74
2021/04/30 02:17:45;;;;;;;8.13;6.38;;;10.50;99.90;;;;;;5073099;28;20035;-74
2021/04/30 02:20:13;;;;;;;8.20;6.00;;;10.40;99.90;;;;;;5073487;28;20016;-74
2021/04/30 02:22:40;;;;;;;9.07;6.57;;;10.40;99.90;;;;;;5073766;28;20017;-74
2021/04/30 02:25:08;;;;;;;8.45;6.70;;;10.30;99.90;;;;;;5073664;28;20025;-72
2021/04/30 02:27:35;;;;;;;8.90;6.32;;;10.30;99.90;;;;;;5073335;28;20033;-72
2021/04/30 02:30:01;;;;;;;8.23;6.25;;;10.30;99.90;;;;;;5072336;28;20024;-72
2021/04/30 02:32:29;;;;;;;8.85;5.97;;;10.20;99.90;;;;;;5073477;28;20499;-72
2021/04/30 02:34:56;;;;;;;7.45;6.18;;;10.30;99.90;;;;;;5073366;28;20021;-72
2021/04/30 02:37:24;;;;;;;7.25;6.55;;;10.30;99.90;;;;;;5073119;28;20016;-71
2021/04/30 02:39:50;;;;;;;8.55;5.90;;;10.30;99.90;;;;;;5073344;28;20099;-72
2021/04/30 02:42:15;;;;;;;9.50;6.55;;;10.20;99.90;;;;;;5073340;28;20448;-72
2021/04/30 02:44:41;;;;;;;7.90;6.80;;;10.30;99.90;;;;;;5071966;28;20035;-72
2021/04/30 02:47:07;;;;;;;10.35;6.13;;;10.40;99.90;;;;;;5072961;28;20031;-72
2021/04/30 02:49:44;;;;;;;12.05;7.18;;;10.50;99.90;;;;;;5071784;28;20477;-72
2021/04/30 02:52:14;;;;;;;9.70;7.22;;;10.60;99.90;;;;;;5071921;28;20028;-72
2021/04/30 02:54:40;;;;;;;8.63;6.75;;;10.60;99.90;;;;;;5073016;28;20029;-72
2021/04/30 02:57:06;;;;;;;9.77;6.90;;;10.60;99.90;;;;;;5072779;28;20029;-72
2021/04/30 02:59:32;;;;;;;8.98;6.53;;;10.50;99.90;;;;;;5072985;28;20027;-72
2021/04/30 03:01:58;;;;;;;11.07;6.57;;;10.40;99.90;;;;;;5071690;28;20029;-71
2021/04/30 03:04:24;;;;;;;8.93;7.15;;;10.30;99.90;;;;;;5072818;28;20515;-72
2021/04/30 03:06:51;;;;;;;11.57;6.85;;;10.40;99.90;;;;;;5072660;28;20028;-72
2021/04/30 03:09:16;;;;;;;10.25;7.28;;;10.40;99.90;;;;;;5071482;28;20035;-72
2021/04/30 03:11:43;;;;;;;9.25;6.10;;;10.40;99.90;;;;;;5072791;28;20028;-72
2021/04/30 03:14:09;;;;;;;8.02;6.00;;;10.40;99.90;;;;;;5072689;28;20024;-72
2021/04/30 03:16:35;;;;;;;6.93;6.18;;;10.30;99.90;;;;;;5072425;28;20049;-72
2021/04/30 03:19:01;;;;;;;10.40;7.38;;;10.40;99.90;;;;;;5072575;28;20392;-72
2021/04/30 03:21:27;;;;;;;10.00;6.68;;;10.70;99.90;;;;;;5072549;28;20036;-72
2021/04/30 03:23:52;;;;;;;8.77;6.57;;;10.90;99.90;;;;;;5071319;28;20031;-72
2021/04/30 03:26:18;;;;;;;8.60;5.82;;;11.00;99.90;;;;;;5072370;28;20013;-72
2021/04/30 03:28:44;;;;;;;11.23;6.68;;;10.90;99.90;;;;;;5071145;28;20036;-72
2021/04/30 03:31:10;;;;;;;9.95;6.15;;;10.90;99.90;;;;;;5071596;28;20025;-72
2021/04/30 03:33:37;;;;;;;9.50;6.38;;;10.90;99.90;;;;;;5072318;28;20048;-72
2021/04/30 03:36:03;;;;;;;9.98;6.47;;;10.80;99.90;;;;;;5070852;28;20021;-72
2021/04/30 03:38:29;;;;;;;8.27;6.30;;;10.70;99.90;;;;;;5072301;28;20037;-72
2021/04/30 03:40:54;;;;;;;9.18;6.28;;;10.70;99.90;;;;;;5072379;28;20031;-72
2021/04/30 03:43:20;;;;;;;9.27;6.18;;;10.80;99.90;;;;;;5071025;28;20029;-74
2021/04/30 03:45:46;;;;;;;7.85;5.82;;;10.70;99.90;;;;;;5072019;28;20032;-74
2021/04/30 03:48:12;;;;;;;10.57;6.65;;;10.80;99.90;;;;;;5070902;28;20040;-74
2021/04/30 03:50:37;;;;;;;10.55;7.30;;;10.90;99.90;;;;;;5072157;28;20396;-74
2021/04/30 03:53:03;;;;;;;10.45;7.03;;;11.00;99.90;;;;;;5072216;28;20025;-74
2021/04/30 03:55:29;;;;;;;7.97;6.93;;;10.90;99.90;;;;;;5072009;28;20120;-74
2021/04/30 03:57:55;;;;;;;10.13;6.60;;;10.90;99.90;;;;;;5071813;28;20028;-74
2021/04/30 04:00:21;;;;;;;9.65;6.28;;;10.70;99.90;;;;;;5070740;28;20021;-74
2021/04/30 04:02:47;;;;;;;9.60;6.75;;;10.80;99.90;;;;;;5070929;28;20099;-74
2021/04/30 04:05:13;;;;;;;13.60;7.35;;;10.90;99.90;;;;;;5071958;28;20387;-75
2021/04/30 04:07:40;;;;;;;8.95;6.30;;;10.90;99.90;;;;;;5071852;28;20537;-74
2021/04/30 04:10:06;;;;;;;8.18;6.13;;;11.10;99.90;;;;;;5071960;28;20021;-74
2021/04/30 04:12:32;;;;;;;11.43;6.28;;;11.20;99.90;;;;;;5070768;28;20592;-74
2021/04/30 04:14:57;;;;;;;10.55;6.72;;;11.30;99.90;;;;;;5071961;28;20029;-74
2021/04/30 04:17:23;;;;;;;12.05;6.78;;;11.30;99.90;;;;;;5071650;28;20031;-74
2021/04/30 04:19:49;;;;;;;7.38;5.60;;;11.30;99.90;;;;;;5071879;28;20476;-72
2021/04/30 04:22:16;;;;;;;8.88;6.45;;;11.00;99.90;;;;;;5071849;28;20399;-72
2021/04/30 04:24:42;;;;;;;7.15;6.07;;;11.00;99.90;;;;;;5071863;28;20021;-72
2021/04/30 04:27:08;;;;;;;11.77;5.93;;;10.90;99.90;;;;;;5070482;28;20493;-74
2021/04/30 04:29:35;;;;;;;7.93;5.75;;;10.90;99.90;;;;;;5070492;28;20032;-74
2021/04/30 04:32:01;;;;;;;7.05;5.72;;;10.90;99.90;;;;;;5071841;28;20020;-75
2021/04/30 04:34:26;;;;;;;7.85;5.57;;;11.00;99.90;;;;;;5070547;28;20161;-72
2021/04/30 04:36:52;;;;;;;7.32;5.15;;;10.90;99.90;;;;;;5071476;28;20755;-72
2021/04/30 04:39:19;;;;;;;8.35;5.88;;;10.90;99.90;;;;;;5071703;28;20112;-71
2021/04/30 04:41:45;;;;;;;7.65;5.15;;;10.80;99.90;;;;;;5073017;28;20093;-71
2021/04/30 04:44:12;;;;;;;6.95;5.03;;;10.80;99.90;;;;;;5075506;28;20032;-72
2021/04/30 04:46:38;;;;;;;6.38;4.78;;;11.00;99.90;;;;;;5073949;28;20074;-72
2021/04/30 04:49:04;;;;;;;7.10;4.82;;;11.10;99.90;;;;;;5073694;28;20028;-72
2021/04/30 04:51:30;;;;;;;8.57;5.80;;;11.10;99.90;;;;;;5074052;28;20099;-72
2021/04/30 04:53:56;;;;;;;6.03;4.72;;;11.00;99.90;;;;;;5075372;28;20028;-74
2021/04/30 04:56:25;;;;;;;5.43;4.82;;;11.00;99.90;;;;;;5073766;28;20090;-74
2021/04/30 04:58:54;;;;;;;6.45;4.88;;;10.80;99.90;;;;;;5075244;28;20021;-74
2021/04/30 05:01:23;;;;;;;5.10;4.50;;;10.60;99.90;;;;;;5073924;28;20021;-74
2021/04/30 05:03:50;;;;;;;6.93;4.93;;;10.50;99.90;;;;;;5074837;28;20042;-74
2021/04/30 05:06:15;;;;;;;8.02;4.95;;;10.50;99.90;;;;;;5074908;28;20047;-74
2021/04/30 05:08:41;;;;;;;7.95;5.30;;;10.40;99.90;;;;;;5075100;28;20024;-74
2021/04/30 05:11:07;;;;;;;8.23;4.97;;;10.50;99.90;;;;;;5074191;28;20584;-75
2021/04/30 05:13:33;;;;;;;7.05;5.05;;;10.50;99.90;;;;;;5071360;28;20023;-72
2021/04/30 05:16:00;;;;;;;7.82;5.07;;;10.70;99.90;;;;;;5071074;28;20020;-75
2021/04/30 05:18:27;;;;;;;8.88;5.32;;;10.80;99.90;;;;;;5072160;28;20024;-72
2021/04/30 05:20:54;;;;;;;18.73;5.45;;;10.80;99.90;;;;;;5073365;28;20028;-72
2021/04/30 05:23:20;;;;;;;20.75;5.88;;;10.90;99.90;;;;;;5069719;28;20020;-72
2021/04/30 05:25:48;;;;;;;17.02;5.68;;;10.90;99.90;;;;;;5072922;28;20024;-72
2021/04/30 05:28:14;;;;;;;19.88;6.18;;;10.90;99.90;;;;;;5055664;28;20105;-72
2021/04/30 05:30:40;;;;;;;14.27;5.35;;;11.00;99.90;;;;;;5072719;28;20025;-72
2021/04/30 05:33:07;;;;;;;10.05;4.88;;;11.10;99.90;;;;;;5076974;28;20028;-72
2021/04/30 05:35:33;;;;;;;10.90;5.32;;;11.30;99.90;;;;;;5074256;28;20025;-71
2021/04/30 05:37:59;;;;;;;11.70;5.13;;;11.30;99.90;;;;;;5073195;28;20135;-72
2021/04/30 05:40:25;;;;;;;25.27;5.55;;;11.40;99.90;;;;;;5073371;28;20024;-72
2021/04/30 05:42:51;;;;;;;12.30;4.70;;;11.20;99.90;;;;;;5071656;28;20063;-71
2021/04/30 05:45:17;;;;;;;14.20;5.28;;;11.20;99.90;;;;;;5072598;28;20068;-74
2021/04/30 05:47:44;;;;;;;28.92;6.25;;;11.30;99.90;;;;;;5072734;28;20099;-72
2021/04/30 05:50:11;;;;;;;7.55;5.32;;;11.30;99.90;;;;;;5072102;28;20037;-72
2021/04/30 05:52:37;;;;;;;10.85;6.60;;;11.30;99.90;;;;;;5071544;28;20044;-72
2021/04/30 05:55:07;;;;;;;18.58;7.63;;;11.40;99.90;;;;;;5071429;28;20016;-72
2021/04/30 05:57:33;;;;;;;26.27;5.20;;;11.50;99.90;;;;;;5070631;28;20115;-71
2021/04/30 05:59:59;;;;;;;9.60;5.00;;;11.50;99.90;;;;;;5072355;28;20095;-72
2021/04/30 06:02:25;;;;;;;23.90;5.95;;;11.60;99.90;;;;;;5076687;28;20048;-72
2021/04/30 06:04:51;;;;;;;38.58;6.55;;;11.70;99.90;;;;;;5072318;28;20112;-72
2021/04/30 06:07:17;;;;;;;15.93;5.00;;;11.80;99.90;;;;;;5072749;28;20392;-74
2021/04/30 06:09:43;;;;;;;23.30;6.03;;;11.60;99.90;;;;;;5072771;28;20020;-74
2021/04/30 06:12:09;;;;;;;19.77;6.05;;;11.60;99.90;;;;;;5072686;28;20145;-74
2021/04/30 06:14:35;;;;;;;18.73;5.80;;;11.60;99.90;;;;;;5071687;28;20031;-75
2021/04/30 06:17:01;;;;;;;11.80;5.40;;;11.40;99.90;;;;;;5072553;28;20103;-74
2021/04/30 06:19:27;;;;;;;29.98;6.75;;;11.30;99.90;;;;;;5072652;28;20024;-74
2021/04/30 06:21:53;;;;;;;8.77;5.65;;;11.30;99.90;;;;;;5072196;28;20576;-74
2021/04/30 06:24:20;;;;;;;24.85;6.20;;;11.30;99.90;;;;;;5072595;28;20066;-74
2021/04/30 06:26:46;;;;;;;14.95;5.95;;;11.50;99.90;;;;;;5071552;28;20017;-74
2021/04/30 06:29:13;;;;;;;13.00;5.85;;;11.50;99.90;;;;;;5053885;28;20021;-74
2021/04/30 06:31:40;;;;;;;24.35;7.47;;;11.60;99.90;;;;;;5071906;28;20085;-74
2021/04/30 06:34:06;;;;;;;18.92;6.38;;;11.60;99.90;;;;;;5070758;28;20422;-74
2021/04/30 06:36:32;;;;;;;19.02;6.70;;;11.60;99.90;;;;;;5072019;28;20056;-75
2021/04/30 06:38:59;;;;;;;15.65;6.90;;;11.70;99.90;;;;;;5072176;28;20017;-75
2021/04/30 06:41:25;;;;;;;8.45;6.70;;;11.90;99.90;;;;;;5072221;28;20021;-74
2021/04/30 06:43:51;;;;;;;45.47;7.80;;;12.00;99.90;;;;;;5053377;28;20511;-75
2021/04/30 06:48:47;;;;;;;23.00;7.53;;;12.00;99.90;;;;;;5070022;28;20538;-74
2021/04/30 06:51:13;;;;;;;19.83;6.38;;;11.90;99.90;;;;;;5070779;28;20035;-74
2021/04/30 06:53:39;;;;;;;8.63;7.05;;;11.80;99.90;;;;;;5070739;28;20090;-74
2021/04/30 06:56:05;;;;;;;9.80;5.93;;;11.90;99.90;;;;;;5071613;28;20020;-74
2021/04/30 06:58:31;;;;;;;12.68;8.27;;;11.80;99.90;;;;;;5071683;28;20032;-74
2021/04/30 07:00:57;;;;;;;10.05;6.20;;;11.80;99.90;;;;;;5070969;28;20391;-75
2021/04/30 07:03:23;;;;;;;13.48;7.53;;;12.10;99.90;;;;;;5072017;28;20021;-74
2021/04/30 07:05:48;;;;;;;10.23;6.97;;;12.20;99.90;;;;;;5071335;28;20016;-74
2021/04/30 07:08:14;;;;;;;12.85;7.20;;;12.20;99.90;;;;;;5071347;28;20024;-74
2021/04/30 07:10:40;;;;;;;13.00;8.77;;;12.10;99.90;;;;;;5070855;28;20052;-74
2021/04/30 07:13:10;;;;;;;12.98;7.95;;;12.10;99.90;;;;;;5053394;28;20067;-74
2021/04/30 07:15:36;;;;;;;10.93;8.02;;;11.90;99.90;;;;;;5071427;28;20059;-74
2021/04/30 07:18:02;;;;;;;15.30;9.07;;;11.50;99.90;;;;;;5071705;28;20025;-74
2021/04/30 07:20:30;;;;;;;15.32;8.27;;;11.60;99.90;;;;;;5053064;28;20029;-74
2021/04/30 07:22:59;;;;;;;11.02;8.63;;;11.50;99.90;;;;;;5069764;28;20103;-74
2021/04/30 07:25:25;;;;;;;9.63;7.75;;;11.50;99.90;;;;;;5070295;28;20108;-74
2021/04/30 07:27:50;;;;;;;10.60;8.80;;;11.50;99.90;;;;;;5069981;28;20048;-75
2021/04/30 07:30:17;;;;;;;9.20;7.93;;;11.60;99.90;;;;;;5071357;28;20060;-74
2021/04/30 07:32:42;;;;;;;17.90;9.23;;;11.70;99.90;;;;;;5070171;28;20036;-74
2021/04/30 07:35:09;;;;;;;16.38;9.38;;;11.70;99.90;;;;;;5070298;28;20488;-74
2021/04/30 07:37:37;;;;;;;11.02;9.10;;;11.70;99.90;;;;;;5069439;28;20494;-74
2021/04/30 07:40:04;;;;;;;13.80;9.27;;;11.60;99.90;;;;;;5069092;28;20052;-74
2021/04/30 07:42:30;;;;;;;12.27;9.32;;;11.70;99.90;;;;;;5069639;28;20294;-74
2021/04/30 07:44:56;;;;;;;13.60;8.30;;;11.90;99.90;;;;;;5069080;28;20608;-75
2021/04/30 07:47:21;;;;;;;12.73;8.13;;;12.10;99.90;;;;;;5070579;28;20044;-74
2021/04/30 07:49:47;;;;;;;10.30;8.60;;;12.00;99.90;;;;;;5070255;28;20025;-74
2021/04/30 07:52:13;;;;;;;10.48;9.23;;;12.10;99.90;;;;;;5069253;28;20119;-74
2021/04/30 07:54:39;;;;;;;11.70;8.68;;;12.20;99.90;;;;;;5069788;28;20074;-74
2021/04/30 07:57:05;;;;;;;10.85;7.53;;;12.40;99.90;;;;;;5070248;28;20107;-74
2021/04/30 07:59:32;;;;;;;12.20;8.30;;;12.70;99.90;;;;;;5070788;28;20095;-74
2021/04/30 08:01:57;;;;;;;10.52;8.15;;;13.00;99.90;;;;;;5068651;28;20436;-74
2021/04/30 08:04:23;;;;;;;16.92;8.73;;;13.00;99.90;;;;;;5070682;28;20024;-74
2021/04/30 08:06:49;;;;;;;11.57;9.10;;;12.80;99.90;;;;;;5069374;28;20052;-75
2021/04/30 08:09:15;;;;;;;12.80;7.85;;;12.70;99.90;;;;;;5070417;28;20025;-75
2021/04/30 08:11:41;;;;;;;11.48;9.18;;;12.50;99.90;;;;;;5070737;28;20107;-74
2021/04/30 08:14:08;;;;;;;10.20;7.93;;;12.80;99.90;;;;;;5069900;28;20096;-74
2021/04/30 08:16:35;;;;;;;8.63;7.38;;;13.20;99.90;;;;;;5069803;28;20031;-74
2021/04/30 08:19:01;;;;;;;9.80;7.50;;;13.70;99.90;;;;;;5075265;28;20431;-74
2021/04/30 08:21:28;;;;;;;13.65;7.35;;;13.70;99.90;;;;;;5073925;28;20017;-75
2021/04/30 08:23:53;;;;;;;8.63;7.50;;;13.60;99.90;;;;;;5074358;28;20499;-75
2021/04/30 08:26:19;;;;;;;12.95;7.60;;;13.80;99.90;;;;;;5073077;28;20024;-74
2021/04/30 08:28:45;;;;;;;19.75;7.78;;;13.90;99.90;;;;;;5074719;28;20028;-74
2021/04/30 08:31:11;;;;;;;20.40;8.20;;;14.00;99.90;;;;;;5073182;28;20024;-74
2021/04/30 08:33:37;;;;;;;13.88;7.63;;;14.10;99.90;;;;;;5073554;28;20020;-73
2021/04/30 08:36:03;;;;;;;12.07;8.23;;;14.40;99.90;;;;;;5073891;28;20025;-74
2021/04/30 08:38:28;;;;;;;22.13;8.15;;;14.50;99.90;;;;;;5074550;28;20060;-74
2021/04/30 08:40:57;;;;;;;20.65;8.68;;;14.20;99.90;;;;;;5074475;28;20089;-74
2021/04/30 08:43:23;;;;;;;15.60;8.05;;;14.20;99.90;;;;;;5074181;28;20032;-73
2021/04/30 08:45:54;;;;;;;9.30;7.72;;;14.20;99.90;;;;;;5073710;28;20575;-74
2021/04/30 08:48:20;;;;;;;11.90;8.25;;;14.30;99.90;;;;;;5072939;28;20139;-74
2021/04/30 08:50:47;;;;;;;21.58;7.82;;;14.00;99.90;;;;;;5073670;28;20024;-74
2021/04/30 08:53:14;;;;;;;11.68;7.20;;;13.90;99.90;;;;;;5074656;28;20039;-74
2021/04/30 08:55:40;;;;;;;9.65;7.93;;;14.10;99.90;;;;;;5056347;28;20021;-74
2021/04/30 08:58:09;;;;;;;12.68;5.25;;;14.40;99.90;;;;;;5073758;28;20024;-74
2021/04/30 09:00:35;;;;;;;10.48;5.10;;;15.10;96.00;;;;;;5074808;28;20017;-74
2021/04/30 09:03:00;;;;;;;11.50;5.57;;;15.50;90.40;;;;;;5073490;28;20429;-74
2021/04/30 09:05:29;;;;;;;16.95;5.55;;;15.90;88.40;;;;;;5073750;28;20028;-74
2021/04/30 09:07:57;;;;;;;5.90;4.70;;;15.70;85.30;;;;;;5074399;28;20028;-74
2021/04/30 09:10:24;;;;;;;6.13;4.00;;;16.20;85.70;;;;;;5072345;28;20028;-74
2021/04/30 09:13:04;;;;;;;6.13;4.30;;;16.50;82.30;;;;;;5073002;28;20103;-74
2021/04/30 09:15:30;;;;;;;8.00;4.22;;;16.50;80.10;;;;;;5073353;28;20027;-74
2021/04/30 09:18:25;;;;;;;12.18;5.45;;;16.70;79.30;;;;;;5074423;28;20527;-74
2021/04/30 09:20:52;;;;;;;17.48;4.60;;;17.00;78.60;;;;;;5067706;28;20043;-74
2021/04/30 09:23:39;;;;;;;7.18;4.18;;;16.90;77.90;;;;;;5074303;28;20036;-74
2021/04/30 09:26:28;;;;;;;4.80;3.83;;;16.80;79.50;;;;;;5072533;28;20464;-74
2021/04/30 09:29:04;;;;;;;5.10;3.90;;;17.20;78.00;;;;;;5071537;28;20012;-73
2021/04/30 09:31:35;;;;;;;7.80;3.90;;;17.70;75.60;;;;;;5072738;28;20446;-73
2021/04/30 09:34:23;;;;;;;6.20;4.70;;;17.50;74.20;;;;;;5074301;28;20048;-73
2021/04/30 09:37:10;;;;;;;5.25;4.43;;;17.10;75.70;;;;;;5056734;28;20028;-74
2021/04/30 09:40:02;;;;;;;5.07;4.07;;;17.30;75.80;;;;;;5074230;28;20432;-74
2021/04/30 09:42:32;;;;;;;9.82;4.68;;;17.40;73.60;;;;;;5073423;28;20027;-75
2021/04/30 09:45:02;;;;;;;7.10;4.22;;;17.30;73.20;;;;;;5062794;28;20459;-74
2021/04/30 09:47:29;;;;;;;4.60;4.10;;;17.50;73.80;;;;;;5036434;28;20488;-75
2021/04/30 09:49:58;;;;;;;7.55;4.72;;;18.00;71.90;;;;;;5064694;28;20418;-75
2021/04/30 09:52:25;;;;;;;4.82;4.20;;;18.50;68.60;;;;;;5072362;28;20107;-75
2021/04/30 09:54:53;;;;;;;5.28;4.78;;;18.30;67.80;;;;;;5072365;28;20428;-74
2021/04/30 09:57:23;;;;;;;5.40;4.43;;;18.50;66.70;;;;;;5072019;28;20025;-74
2021/04/30 10:00:00;;;;;;;8.32;4.38;;;18.80;66.70;;;;;;5073052;28;20476;-75
2021/04/30 10:02:33;;;;;;;8.45;5.00;;;19.20;64.60;;;;;;5093300;28;20016;-74
2021/04/30 10:05:15;;;;;;;6.45;4.82;;;19.10;64.20;;;;;;5074148;28;20484;-74
2021/04/30 10:07:42;;;;;;;6.95;5.03;;;19.10;65.10;;;;;;5073123;28;20099;-75
2021/04/30 10:10:10;;;;;;;7.50;5.32;;;19.40;63.30;;;;;;5089814;28;20141;-74
2021/04/30 10:12:39;;;;;;;8.68;5.00;;;19.80;62.90;;;;;;5073618;28;20476;-73
2021/04/30 10:15:07;;;;;;;5.75;5.13;;;19.70;63.00;;;;;;5076916;28;20016;-72
2021/04/30 10:17:33;;;;;;;6.10;5.28;;;19.70;64.10;;;;;;5074084;28;20032;-74
2021/04/30 10:19:59;;;;;;;14.43;5.30;;;19.90;63.20;;;;;;5072791;28;20480;-74
2021/04/30 10:22:26;;;;;;;5.88;5.28;;;19.80;62.50;;;;;;5106430;28;20017;-74
2021/04/30 10:24:59;;;;;;;6.13;5.32;;;19.90;62.70;;;;;;5056561;28;20052;-75
2021/04/30 10:27:33;;;;;;;9.60;5.40;;;19.90;62.20;;;;;;5074967;28;20104;-74
2021/04/30 10:30:33;;;;;;;8.02;5.35;;;20.20;62.70;;;;;;5074624;28;20078;-73
2021/04/30 10:33:08;;;;;;;5.68;4.60;;;20.40;63.00;;;;;;5054484;28;20040;-73
2021/04/30 10:35:48;;;;;;;5.70;5.20;;;20.70;61.00;;;;;;5052512;28;20038;-74
2021/04/30 10:38:18;;;;;;;6.60;4.90;;;20.90;59.70;;;;;;5053800;28;20516;-74
2021/04/30 10:41:00;;;;;;;10.43;5.95;;;21.00;61.00;;;;;;5071995;28;20020;-74
2021/04/30 10:43:26;;;;;;;4.75;4.30;;;21.10;60.40;;;;;;5072395;28;20048;-74
2021/04/30 10:46:13;;;;;;;7.03;4.95;;;21.20;59.60;;;;;;5072137;28;20506;-75
2021/04/30 10:49:15;;;;;;;5.88;5.10;;;21.40;58.60;;;;;;5037254;28;20377;-74
2021/04/30 10:51:43;;;;;;;6.82;4.50;;;21.20;58.80;;;;;;5073399;28;20545;-74
2021/04/30 10:54:25;;;;;;;6.18;4.20;;;21.20;59.00;;;;;;5073307;28;20025;-74
2021/04/30 10:56:57;;;;;;;5.82;3.47;;;21.40;58.60;;;;;;5072797;28;20098;-74
2021/04/30 10:59:36;;;;;;;4.95;3.58;;;21.70;56.50;;;;;;5073332;28;20468;-74
2021/04/30 11:02:21;;;;;;;9.25;3.53;;;21.80;56.60;;;;;;5072113;28;20025;-74
2021/04/30 11:05:12;;;;;;;12.63;3.38;;;21.80;55.50;;;;;;5064494;28;20376;-75
2021/04/30 11:07:54;;;;;;;4.80;3.55;;;21.90;55.20;;;;;;5073253;28;20024;-75
2021/04/30 11:13:03;;;;;;;3.83;3.40;;;21.40;55.90;;;;;;5071769;28;20507;-74
2021/04/30 11:15:51;;;;;;;6.13;3.28;;;21.30;55.60;;;;;;5073379;28;20047;-75
2021/04/30 11:18:20;;;;;;;7.45;2.78;;;21.70;55.00;;;;;;5073008;28;20521;-74
2021/04/30 11:21:06;;;;;;;5.03;2.55;;;21.80;55.10;;;;;;5072941;28;20012;-74
2021/04/30 11:23:53;;;;;;;6.40;3.28;;;22.00;54.40;;;;;;5072791;28;20118;-74
2021/04/30 11:26:28;;;;;;;5.05;3.17;;;21.20;56.10;;;;;;5072819;28;20017;-74
2021/04/30 11:28:54;;;;;;;5.32;2.58;;;20.70;57.40;;;;;;5071643;28;20017;-74
2021/04/30 11:31:28;;;;;;;3.33;2.65;;;20.80;58.20;;;;;;5071484;28;20112;-74
2021/04/30 11:34:09;;;;;;;2.90;2.47;;;21.10;56.80;;;;;;5072805;28;20023;-74
2021/04/30 11:36:40;;;;;;;6.37;3.40;;;21.00;56.40;;;;;;5071108;28;20016;-74
2021/04/30 11:39:26;;;;;;;10.77;3.08;;;20.80;57.20;;;;;;5072816;28;20013;-74
2021/04/30 11:41:57;;;;;;;7.15;2.60;;;21.20;56.60;;;;;;5070879;28;20029;-72
2021/04/30 11:44:24;;;;;;;4.38;3.25;;;21.20;56.30;;;;;;5072181;28;20025;-73
2021/04/30 11:47:01;;;;;;;3.10;2.90;;;21.10;56.70;;;;;;5087654;28;20044;-73
2021/04/30 11:49:28;;;;;;;2.90;2.60;;;21.10;55.30;;;;;;5070300;28;20111;-73
2021/04/30 11:51:54;;;;;;;9.95;3.88;;;20.90;56.90;;;;;;5052743;28;20484;-73
2021/04/30 11:54:25;;;;;;;2.78;2.33;;;20.60;57.40;;;;;;5070432;28;20020;-73
2021/04/30 11:57:01;;;;;;;3.20;2.22;;;20.90;57.80;;;;;;5054087;28;20396;-73
2021/04/30 11:59:27;;;;;;;16.25;3.17;;;20.60;56.10;;;;;;5050761;28;20029;-73
2021/04/30 12:02:08;;;;;;;2.28;2.08;;;20.50;57.60;;;;;;5052620;28;20025;-73
2021/04/30 12:04:41;;;;;;;3.25;2.35;;;20.30;56.40;;;;;;5060154;28;20021;-72
2021/04/30 12:07:08;;;;;;;3.80;2.50;;;20.30;57.00;;;;;;5071300;28;20116;-73
2021/04/30 12:09:34;;;;;;;2.65;2.45;;;20.30;58.20;;;;;;5071082;28;20025;-73
2021/04/30 12:12:22;;;;;;;3.50;2.72;;;20.20;57.80;;;;;;5071371;28;20094;-73
2021/04/30 12:15:03;;;;;;;3.33;2.97;;;19.90;58.50;;;;;;5070237;28;20040;-73
2021/04/30 12:17:37;;;;;;;3.35;2.35;;;19.70;59.80;;;;;;5069985;28;20028;-73
2021/04/30 12:20:10;;;;;;;3.30;2.95;;;19.70;59.40;;;;;;5064406;28;20052;-73
2021/04/30 12:22:58;;;;;;;3.17;2.72;;;19.30;60.30;;;;;;5051929;28;20017;-74
2021/04/30 12:25:28;;;;;;;2.75;2.17;;;19.20;62.50;;;;;;5058604;28;20383;-74
2021/04/30 12:28:20;;;;;;;4.10;2.67;;;19.30;61.50;;;;;;5072144;28;20037;-74
2021/04/30 12:30:51;;;;;;;4.32;3.47;;;19.10;61.90;;;;;;5071401;28;20027;-74
2021/04/30 12:33:31;;;;;;;5.23;3.43;;;19.00;62.80;;;;;;5054320;28;20078;-74
2021/04/30 12:36:19;;;;;;;5.72;2.60;;;19.00;63.00;;;;;;5071380;28;20024;-76
2021/04/30 12:38:48;;;;;;;10.57;3.25;;;18.90;62.80;;;;;;5055264;28;20408;-75
2021/04/30 12:41:16;;;;;;;3.08;2.30;;;18.60;64.10;;;;;;5071271;28;20090;-75
2021/04/30 12:43:42;;;;;;;4.05;2.28;;;18.80;64.30;;;;;;5071237;28;20029;-74
2021/04/30 12:46:17;;;;;;;2.80;2.10;;;18.90;63.60;;;;;;5083296;23;20442;-73
2021/04/30 12:48:45;;;;;;;4.78;2.20;;;19.20;61.80;;;;;;5071350;28;20029;-73
2021/04/30 12:51:14;;;;;;;5.38;2.45;;;19.30;62.80;;;;;;5070064;28;20070;-73
2021/04/30 12:53:41;;;;;;;2.60;2.25;;;19.20;61.90;;;;;;5071023;28;20060;-73